createdAt,value
2023-08-15T00:20:24.775Z,79.88
2023-08-15T00:50:27.653Z,80.96
2023-08-15T01:20:30.775Z,81.58
2023-08-15T01:50:33.679Z,82.71
2023-08-15T02:20:37.245Z,83.89
2023-08-15T02:50:40.309Z,84.50
2023-08-15T03:20:44.113Z,84.96
2023-08-15T03:50:47.154Z,85.37
2023-08-15T04:20:51.377Z,86.94
2023-08-15T04:50:54.292Z,88.12
2023-08-15T05:20:58.905Z,86.73
2023-08-15T05:51:01.876Z,84.34
2023-08-15T06:21:06.301Z,82.69
2023-08-15T06:51:09.186Z,80.93
2023-08-15T07:21:12.153Z,78.30
2023-08-15T07:51:15.765Z,75.36
2023-08-15T08:21:18.801Z,70.59
2023-08-15T08:51:22.020Z,67.44
2023-08-15T09:21:25.207Z,62.83
2023-08-15T09:51:28.583Z,57.60
2023-08-15T10:21:31.938Z,54.40
2023-08-15T10:51:35.073Z,48.31
2023-08-15T11:21:38.384Z,45.00
2023-08-15T11:51:41.396Z,42.70
2023-08-15T12:21:44.720Z,40.19
2023-08-15T12:51:47.909Z,38.87
2023-08-15T13:21:51.191Z,36.94
2023-08-15T13:51:54.556Z,36.06
2023-08-15T14:21:58.516Z,35.45
2023-08-15T14:52:01.553Z,34.95
2023-08-15T15:22:05.100Z,36.02
2023-08-15T15:52:08.142Z,36.10
2023-08-15T16:22:11.213Z,38.00
2023-08-15T16:52:14.102Z,37.86
2023-08-15T17:22:17.237Z,45.28
2023-08-15T17:52:20.979Z,47.52
2023-08-15T18:22:24.814Z,50.24
2023-08-15T18:52:28.259Z,52.78
2023-08-15T19:22:31.256Z,55.57
2023-08-15T19:52:34.579Z,59.34
2023-08-15T20:22:37.711Z,60.66
2023-08-15T20:52:41.219Z,61.32
2023-08-15T21:22:45.072Z,63.46
2023-08-15T21:52:48.829Z,65.18
2023-08-15T22:22:51.817Z,66.12
2023-08-15T23:23:45.900Z,69.22
2023-08-15T23:53:48.953Z,69.98
